Time;durP1;ratioP1;P1;durP2;ratioP2;P2;SDS_P1;SDS_P2;PMS_P1;PMS_P2;Temp;Humidity;BMP_temperature;BMP_pressure;BME280_temperature;BME280_humidity;BME280_pressure;Samples;Min_cycle;Max_cycle;Signal;HPM_P1;HPM_P2
2023/03/11 00:00:30;;;;;;;1.87;1.40;;;7.30;51.60;;;;;;4966835;28;20445;-44
2023/03/11 00:02:58;;;;;;;1.23;1.13;;;6.90;51.20;;;;;;4963354;28;20313;-44
2023/03/11 00:05:27;;;;;;;1.10;1.10;;;6.90;51.80;;;;;;4965525;28;20438;-46
2023/03/11 00:07:53;;;;;;;1.40;1.10;;;6.80;51.50;;;;;;4966742;28;20430;-42
2023/03/11 00:10:25;;;;;;;1.33;1.17;;;7.00;51.90;;;;;;4971686;28;20513;-46
2023/03/11 00:12:51;;;;;;;1.10;1.00;;;7.10;51.50;;;;;;4970258;28;20564;-45
2023/03/11 00:15:17;;;;;;;1.40;0.97;;;7.10;51.10;;;;;;4971904;28;20468;-44
2023/03/11 00:17:42;;;;;;;0.90;0.90;;;7.30;50.90;;;;;;4963847;28;20204;-43
2023/03/11 00:20:20;;;;;;;1.57;1.10;;;7.30;50.70;;;;;;4967686;28;20457;-44
2023/03/11 00:22:46;;;;;;;1.10;1.00;;;7.10;50.80;;;;;;4955847;28;20584;-42
2023/03/11 00:25:13;;;;;;;2.40;1.13;;;7.00;51.30;;;;;;4965273;28;20853;-44
2023/03/11 00:27:38;;;;;;;1.30;1.07;;;6.90;51.60;;;;;;4965059;28;20438;-44
2023/03/11 00:30:05;;;;;;;1.37;1.27;;;6.70;52.20;;;;;;4968499;28;20985;-44
2023/03/11 00:32:31;;;;;;;1.30;1.20;;;6.90;52.60;;;;;;4954623;28;20282;-44
2023/03/11 00:34:56;;;;;;;2.80;1.03;;;7.00;52.20;;;;;;4961450;28;20514;-46
2023/03/11 00:37:22;;;;;;;2.83;1.33;;;6.90;52.40;;;;;;4961233;28;20195;-44
2023/03/11 00:39:48;;;;;;;1.10;1.00;;;6.70;52.50;;;;;;4968694;28;20206;-44
2023/03/11 00:42:13;;;;;;;1.43;1.00;;;6.80;53.10;;;;;;4968361;28;20191;-43
2023/03/11 00:44:39;;;;;;;1.50;1.30;;;6.80;53.20;;;;;;4968362;28;20191;-43
2023/03/11 00:47:04;;;;;;;1.10;1.00;;;6.90;53.20;;;;;;4970915;28;20291;-45
2023/03/11 00:49:30;;;;;;;1.87;1.30;;;7.00;53.00;;;;;;4969098;28;20211;-43
2023/03/11 00:51:55;;;;;;;2.60;1.20;;;7.10;53.00;;;;;;4956217;28;20196;-43
2023/03/11 00:54:21;;;;;;;1.57;1.40;;;7.30;53.20;;;;;;4961491;28;20267;-42
2023/03/11 00:56:47;;;;;;;1.23;1.13;;;7.10;52.80;;;;;;4974379;28;20234;-43
2023/03/11 00:59:12;;;;;;;1.27;1.10;;;6.90;52.80;;;;;;4972317;28;20283;-44
2023/03/11 01:01:38;;;;;;;1.43;1.20;;;7.00;53.00;;;;;;4974885;28;20204;-43
2023/03/11 01:04:03;;;;;;;1.23;1.10;;;7.10;53.10;;;;;;4962143;28;20239;-43
2023/03/11 01:06:29;;;;;;;1.20;1.10;;;7.30;53.00;;;;;;4968188;28;20206;-43
2023/03/11 01:08:55;;;;;;;1.40;1.30;;;7.30;52.50;;;;;;4973611;28;20227;-42
2023/03/11 01:11:20;;;;;;;1.47;1.23;;;6.70;52.50;;;;;;4953770;28;20239;-42
2023/03/11 01:13:46;;;;;;;2.00;1.30;;;6.60;53.20;;;;;;4965878;28;20196;-42
2023/03/11 01:16:11;;;;;;;1.83;1.43;;;6.50;54.10;;;;;;4974537;28;20578;-42
2023/03/11 01:18:37;;;;;;;3.00;1.57;;;6.50;54.10;;;;;;4964734;28;20278;-43
2023/03/11 01:21:03;;;;;;;1.73;1.30;;;6.60;54.10;;;;;;4973306;28;20192;-44
2023/03/11 01:23:28;;;;;;;2.40;1.30;;;6.50;54.30;;;;;;4968181;28;20191;-43
2023/03/11 01:25:54;;;;;;;1.57;1.17;;;6.30;54.10;;;;;;4968705;28;20199;-42
2023/03/11 01:28:20;;;;;;;6.83;1.70;;;6.20;54.80;;;;;;4972919;28;20271;-42
2023/03/11 01:30:45;;;;;;;1.63;1.53;;;6.20;54.60;;;;;;4962504;28;20234;-42
2023/03/11 01:33:18;;;;;;;2.20;1.13;;;6.40;54.50;;;;;;4961693;28;20255;-42
2023/03/11 01:35:45;;;;;;;1.30;1.20;;;6.40;54.30;;;;;;4967555;28;20623;-44
2023/03/11 01:38:11;;;;;;;1.30;1.20;;;6.40;54.30;;;;;;4970098;28;20438;-42
2023/03/11 01:40:45;;;;;;;2.63;1.63;;;6.30;54.70;;;;;;4963514;28;20450;-42
2023/03/11 01:43:35;;;;;;;2.70;1.30;;;6.30;54.30;;;;;;4969819;28;20542;-42
2023/03/11 01:46:01;;;;;;;1.20;1.10;;;6.40;54.30;;;;;;4962086;28;20454;-43
2023/03/11 01:48:28;;;;;;;1.63;1.50;;;6.70;54.00;;;;;;4968852;28;20443;-42
2023/03/11 01:50:54;;;;;;;2.67;1.63;;;6.50;53.60;;;;;;4972347;28;20215;-42
2023/03/11 01:53:20;;;;;;;1.70;1.30;;;6.60;53.80;;;;;;4970403;28;20448;-42
2023/03/11 01:55:47;;;;;;;2.13;1.30;;;6.60;53.60;;;;;;4971716;28;20478;-43
2023/03/11 01:58:22;;;;;;;1.77;1.13;;;6.40;53.90;;;;;;4967750;28;20448;-42
2023/03/11 02:00:49;;;;;;;2.03;1.50;;;6.50;53.90;;;;;;4970266;28;20438;-42
2023/03/11 02:03:26;;;;;;;1.60;1.50;;;6.50;54.00;;;;;;4964423;28;20886;-42
2023/03/11 02:05:54;;;;;;;2.47;1.47;;;6.50;54.00;;;;;;4969953;28;20450;-43
2023/03/11 02:08:20;;;;;;;1.77;1.30;;;6.60;54.20;;;;;;4970222;28;20442;-43
2023/03/11 02:10:47;;;;;;;1.60;1.30;;;6.50;53.70;;;;;;4969846;28;20495;-42
2023/03/11 02:13:12;;;;;;;1.63;1.53;;;6.20;53.90;;;;;;4968999;28;20195;-42
2023/03/11 02:15:38;;;;;;;2.40;1.47;;;6.20;54.20;;;;;;4963243;28;20448;-42
2023/03/11 02:18:05;;;;;;;2.00;1.20;;;6.10;54.30;;;;;;4965075;28;20294;-43
2023/03/11 02:20:56;;;;;;;1.70;1.37;;;6.00;54.60;;;;;;4970724;28;20448;-42
2023/03/11 02:23:27;;;;;;;1.20;1.03;;;6.00;54.80;;;;;;4971188;28;20458;-43
2023/03/11 02:26:47;;;;;;;1.80;1.40;;;6.10;54.70;;;;;;4964054;28;20802;-42
2023/03/11 02:29:13;;;;;;;3.53;2.30;;;6.30;54.50;;;;;;4904717;29;20496;-42
2023/03/11 02:31:41;;;;;;;1.90;1.27;;;6.10;54.40;;;;;;4962751;28;20554;-43
2023/03/11 02:34:13;;;;;;;2.23;1.20;;;6.20;55.30;;;;;;4968460;28;20556;-42
2023/03/11 02:36:40;;;;;;;2.47;1.40;;;6.30;54.10;;;;;;4961847;28;20455;-41
2023/03/11 02:39:07;;;;;;;1.20;1.10;;;6.40;53.50;;;;;;4970783;28;20566;-42
2023/03/11 02:41:36;;;;;;;3.30;1.60;;;5.80;53.20;;;;;;4969343;28;20530;-42
2023/03/11 02:44:03;;;;;;;1.33;1.23;;;5.90;54.20;;;;;;4970297;28;20443;-42
2023/03/11 02:46:29;;;;;;;2.50;1.57;;;6.00;54.50;;;;;;4968773;28;20447;-42
2023/03/11 02:48:56;;;;;;;1.93;1.60;;;6.40;54.10;;;;;;4966965;28;20443;-42
2023/03/11 02:51:22;;;;;;;4.27;1.60;;;6.60;53.20;;;;;;4970180;28;20537;-42
2023/03/11 02:53:51;;;;;;;2.03;1.30;;;6.50;52.90;;;;;;4965398;28;20467;-45
2023/03/11 02:56:17;;;;;;;3.37;1.50;;;6.30;53.30;;;;;;4971800;28;20278;-42
2023/03/11 02:58:43;;;;;;;2.10;1.67;;;6.00;53.80;;;;;;4972950;28;20513;-42
2023/03/11 03:01:09;;;;;;;2.40;1.37;;;6.30;54.00;;;;;;4969569;28;20522;-42
2023/03/11 03:03:34;;;;;;;1.97;1.10;;;6.30;53.90;;;;;;4969041;28;20195;-42
2023/03/11 03:06:00;;;;;;;1.23;1.13;;;6.10;53.70;;;;;;4972755;28;20846;-42
2023/03/11 03:08:25;;;;;;;1.30;1.20;;;6.20;53.80;;;;;;4965848;28;20254;-43
2023/03/11 03:10:52;;;;;;;2.53;1.40;;;6.20;53.30;;;;;;4962611;28;20589;-43
2023/03/11 03:13:17;;;;;;;1.30;1.20;;;6.00;53.40;;;;;;4965532;28;20223;-42
2023/03/11 03:15:43;;;;;;;2.00;1.50;;;6.30;53.60;;;;;;4956693;28;20468;-43
2023/03/11 03:18:09;;;;;;;1.20;1.10;;;6.10;53.20;;;;;;4963209;28;20191;-42
2023/03/11 03:20:34;;;;;;;4.23;1.53;;;6.00;53.60;;;;;;4968468;28;20243;-42
2023/03/11 03:23:00;;;;;;;2.97;1.80;;;6.10;53.70;;;;;;4956486;28;20222;-42
2023/03/11 03:25:25;;;;;;;3.93;1.20;;;6.10;53.30;;;;;;4968487;28;20203;-43
2023/03/11 03:27:51;;;;;;;2.80;1.13;;;6.00;52.50;;;;;;4959079;28;20198;-42
2023/03/11 03:30:17;;;;;;;3.50;1.27;;;6.10;52.20;;;;;;4968500;28;20267;-42
2023/03/11 03:32:42;;;;;;;1.70;1.20;;;6.20;51.70;;;;;;4968576;28;20235;-42
2023/03/11 03:35:08;;;;;;;1.37;1.00;;;6.40;51.30;;;;;;4965310;28;20547;-42
2023/03/11 03:37:36;;;;;;;3.00;1.50;;;6.50;50.70;;;;;;4957739;28;20203;-43
2023/03/11 03:40:07;;;;;;;1.63;1.03;;;6.50;50.30;;;;;;4965960;28;20531;-42
2023/03/11 03:42:34;;;;;;;1.03;0.83;;;6.50;50.10;;;;;;4967091;28;20446;-42
2023/03/11 03:45:00;;;;;;;2.77;1.10;;;6.30;50.20;;;;;;4964556;28;20447;-42
2023/03/11 03:47:25;;;;;;;3.00;1.10;;;6.50;50.20;;;;;;4948533;28;20443;-42
2023/03/11 03:49:51;;;;;;;1.60;0.90;;;6.40;49.80;;;;;;4966453;28;20752;-42
2023/03/11 03:52:17;;;;;;;2.30;1.20;;;6.60;49.80;;;;;;4961486;28;20210;-42
2023/03/11 03:54:42;;;;;;;2.40;0.90;;;6.80;49.20;;;;;;4968666;28;20231;-42
2023/03/11 03:57:08;;;;;;;1.90;0.90;;;6.60;49.00;;;;;;4966436;28;20203;-43
2023/03/11 03:59:34;;;;;;;5.43;1.30;;;6.60;49.10;;;;;;4961147;28;20648;-42
2023/03/11 04:01:59;;;;;;;5.10;1.00;;;6.70;49.20;;;;;;4967034;28;20200;-43
2023/03/11 04:04:25;;;;;;;1.30;0.83;;;6.70;49.10;;;;;;4966907;28;20200;-42
2023/03/11 04:06:51;;;;;;;2.23;1.10;;;6.70;49.10;;;;;;4960079;28;20226;-42
2023/03/11 04:09:17;;;;;;;2.23;0.90;;;6.60;49.00;;;;;;4961063;28;20192;-43
2023/03/11 04:11:43;;;;;;;4.63;1.20;;;6.50;49.30;;;;;;4966894;28;20200;-43
2023/03/11 04:14:09;;;;;;;3.60;1.60;;;6.40;49.40;;;;;;4963269;28;20451;-42
2023/03/11 04:16:34;;;;;;;2.60;1.07;;;6.40;49.70;;;;;;4967435;28;20191;-42
2023/03/11 04:19:00;;;;;;;2.93;1.27;;;6.40;49.70;;;;;;4964844;28;20443;-43
2023/03/11 04:21:25;;;;;;;2.00;1.20;;;6.50;49.60;;;;;;4964028;28;20717;-42
2023/03/11 04:23:51;;;;;;;2.47;1.47;;;6.50;49.50;;;;;;4965894;28;20211;-44
2023/03/11 04:26:17;;;;;;;2.53;1.30;;;6.30;49.50;;;;;;4963924;28;20191;-43
2023/03/11 04:28:42;;;;;;;1.70;1.20;;;6.20;49.70;;;;;;4965557;28;20196;-42
2023/03/11 04:31:08;;;;;;;2.00;1.07;;;6.20;49.80;;;;;;4971093;28;20235;-42
2023/03/11 04:33:34;;;;;;;3.37;1.67;;;6.30;50.00;;;;;;4965777;28;20199;-42
2023/03/11 04:36:04;;;;;;;2.57;1.30;;;6.50;49.90;;;;;;4963440;28;20210;-43
2023/03/11 04:38:29;;;;;;;3.60;1.30;;;6.60;49.40;;;;;;4970242;28;20450;-43
2023/03/11 04:41:02;;;;;;;1.57;0.90;;;6.60;49.10;;;;;;4969083;28;20490;-42
2023/03/11 04:43:28;;;;;;;1.70;1.23;;;6.60;49.40;;;;;;4978206;28;20273;-42
2023/03/11 04:45:54;;;;;;;5.70;1.17;;;6.60;49.10;;;;;;4980009;28;20530;-42
2023/03/11 04:48:19;;;;;;;1.70;1.23;;;6.70;49.30;;;;;;4974176;28;20677;-42
2023/03/11 04:50:45;;;;;;;1.00;1.00;;;7.00;48.90;;;;;;4971495;28;20234;-42
2023/03/11 04:53:11;;;;;;;3.20;1.20;;;7.00;48.60;;;;;;4958037;28;20235;-42
2023/03/11 04:55:37;;;;;;;1.63;0.97;;;7.00;48.60;;;;;;4970786;28;20230;-42
2023/03/11 04:58:03;;;;;;;1.10;1.00;;;6.90;48.60;;;;;;4965741;28;20196;-42
2023/03/11 05:00:29;;;;;;;1.30;0.83;;;6.80;48.80;;;;;;4967950;28;20937;-45
2023/03/11 05:02:54;;;;;;;2.33;1.20;;;6.70;49.20;;;;;;4970498;28;20318;-44
2023/03/11 05:05:20;;;;;;;1.70;1.10;;;6.90;49.20;;;;;;4973439;28;20198;-43
2023/03/11 05:07:46;;;;;;;2.77;1.40;;;6.60;49.40;;;;;;4969250;28;20196;-43
2023/03/11 05:10:12;;;;;;;2.30;1.17;;;6.60;49.70;;;;;;4963048;28;20242;-42
2023/03/11 05:12:37;;;;;;;3.23;1.40;;;6.70;49.80;;;;;;4967568;28;21106;-45
2023/03/11 05:15:04;;;;;;;3.73;1.10;;;6.80;49.70;;;;;;4972815;28;20450;-42
2023/03/11 05:17:29;;;;;;;2.80;1.40;;;6.80;49.60;;;;;;4968287;28;20221;-43
2023/03/11 05:19:55;;;;;;;6.80;1.40;;;6.70;49.80;;;;;;4971371;28;20454;-42
2023/03/11 05:22:21;;;;;;;2.47;1.30;;;6.70;50.10;;;;;;4973574;28;20202;-43
2023/03/11 05:24:46;;;;;;;2.00;1.10;;;6.50;50.00;;;;;;4964848;28;20673;-45
2023/03/11 05:27:15;;;;;;;3.60;1.00;;;6.50;50.40;;;;;;4970753;28;20200;-42
2023/03/11 05:29:41;;;;;;;3.93;1.40;;;6.50;50.50;;;;;;4965484;28;20223;-43
2023/03/11 05:32:07;;;;;;;6.77;4.10;;;6.40;50.60;;;;;;4967260;28;20430;-43
2023/03/11 05:34:32;;;;;;;7.00;4.00;;;6.40;50.60;;;;;;4967789;28;20538;-42
2023/03/11 05:36:58;;;;;;;3.07;1.60;;;6.30;50.70;;;;;;4974522;28;20191;-43
2023/03/11 05:39:24;;;;;;;5.33;1.30;;;6.20;51.00;;;;;;4973516;28;20651;-42
2023/03/11 05:41:49;;;;;;;2.30;1.20;;;6.20;51.30;;;;;;4969643;28;20196;-42
2023/03/11 05:44:15;;;;;;;4.87;1.50;;;6.10;51.30;;;;;;4969256;28;20201;-42
2023/03/11 05:46:40;;;;;;;1.20;1.10;;;6.10;51.60;;;;;;4971011;28;20628;-42
2023/03/11 05:49:06;;;;;;;4.00;1.20;;;6.20;51.40;;;;;;4972659;28;20199;-43
2023/03/11 05:51:31;;;;;;;1.93;1.30;;;6.30;51.20;;;;;;4963102;28;20230;-43
2023/03/11 05:53:57;;;;;;;1.60;1.40;;;6.30;51.00;;;;;;4972324;28;20318;-43
2023/03/11 05:56:23;;;;;;;2.10;1.00;;;6.30;51.00;;;;;;4972797;28;20675;-42
2023/03/11 05:58:49;;;;;;;2.40;1.37;;;6.30;51.10;;;;;;4974017;28;20202;-42
2023/03/11 06:01:17;;;;;;;1.43;1.10;;;6.40;51.10;;;;;;4969531;28;20459;-42
2023/03/11 06:03:43;;;;;;;3.23;1.57;;;6.50;50.90;;;;;;4965834;28;20206;-42
2023/03/11 06:06:11;;;;;;;3.47;1.37;;;6.50;50.80;;;;;;4968734;28;20945;-42
2023/03/11 06:08:36;;;;;;;2.87;1.10;;;6.50;50.90;;;;;;4961140;28;20218;-44
2023/03/11 06:11:05;;;;;;;4.90;1.40;;;6.40;50.80;;;;;;4970247;28;20498;-43
2023/03/11 06:13:31;;;;;;;3.00;1.40;;;6.40;51.00;;;;;;4970148;28;20230;-43
2023/03/11 06:15:56;;;;;;;2.50;1.50;;;6.40;50.90;;;;;;4962632;28;20455;-42
2023/03/11 06:18:22;;;;;;;2.33;1.10;;;6.60;51.00;;;;;;4966213;28;20445;-42
2023/03/11 06:20:48;;;;;;;2.77;1.17;;;6.80;51.60;;;;;;4971486;28;20338;-43
2023/03/11 06:23:13;;;;;;;1.10;1.00;;;7.00;50.70;;;;;;4969047;28;20682;-46
2023/03/11 06:25:39;;;;;;;2.50;1.10;;;7.10;50.50;;;;;;4963827;28;20196;-42
2023/03/11 06:28:05;;;;;;;3.10;1.50;;;7.20;50.90;;;;;;4968251;28;20191;-43
2023/03/11 06:30:30;;;;;;;3.43;1.20;;;7.10;49.80;;;;;;4968703;28;20231;-42
2023/03/11 06:32:56;;;;;;;5.13;1.40;;;7.20;49.90;;;;;;4967533;28;20195;-43
2023/03/11 06:35:22;;;;;;;2.50;1.13;;;7.30;49.50;;;;;;4962436;28;20261;-42
2023/03/11 06:37:47;;;;;;;2.97;1.20;;;7.20;49.60;;;;;;4972327;28;20195;-42
2023/03/11 06:40:13;;;;;;;2.20;1.20;;;7.30;49.70;;;;;;4968871;28;20347;-42
2023/03/11 06:42:39;;;;;;;1.57;1.00;;;7.50;49.40;;;;;;4966826;28;20673;-42
2023/03/11 06:45:05;;;;;;;5.93;1.40;;;7.50;49.20;;;;;;4964446;28;20207;-42
2023/03/11 06:47:31;;;;;;;2.00;1.23;;;7.40;48.80;;;;;;4962166;28;20488;-43
2023/03/11 06:49:56;;;;;;;4.77;1.73;;;7.30;49.00;;;;;;4965757;28;20494;-43
2023/03/11 06:52:22;;;;;;;5.17;1.40;;;7.50;49.00;;;;;;4971559;28;20201;-43
2023/03/11 06:54:48;;;;;;;4.47;1.43;;;7.40;48.80;;;;;;4970046;28;20234;-42
2023/03/11 06:57:14;;;;;;;1.83;1.53;;;7.20;48.80;;;;;;4968355;28;20202;-44
2023/03/11 06:59:40;;;;;;;1.77;1.20;;;7.20;48.80;;;;;;4965364;28;20451;-42
2023/03/11 07:02:06;;;;;;;4.83;1.50;;;7.30;48.80;;;;;;4968604;28;20461;-43
2023/03/11 07:04:32;;;;;;;4.33;1.30;;;7.20;48.50;;;;;;4955618;28;20208;-42
2023/03/11 07:06:58;;;;;;;2.20;1.30;;;7.00;49.00;;;;;;4971619;28;20455;-42
2023/03/11 07:09:24;;;;;;;2.20;1.27;;;7.20;48.90;;;;;;4964992;28;20451;-43
2023/03/11 07:11:51;;;;;;;3.43;1.30;;;7.20;48.50;;;;;;4969212;28;20473;-43
2023/03/11 07:14:17;;;;;;;4.50;1.10;;;6.90;49.10;;;;;;4971404;28;20451;-43
2023/03/11 07:16:43;;;;;;;3.63;1.80;;;7.10;49.20;;;;;;4969517;28;20580;-43
2023/03/11 07:19:10;;;;;;;2.10;1.23;;;7.30;48.90;;;;;;4962653;28;20475;-43
2023/03/11 07:21:35;;;;;;;5.90;1.20;;;7.50;48.50;;;;;;4962429;28;20479;-43
2023/03/11 07:24:02;;;;;;;4.70;1.30;;;7.60;48.20;;;;;;4969734;28;20478;-44
2023/03/11 07:26:29;;;;;;;2.37;1.40;;;7.70;47.70;;;;;;4962207;28;20195;-44
2023/03/11 07:28:56;;;;;;;3.07;1.40;;;7.70;47.80;;;;;;4960215;28;20451;-43
2023/03/11 07:31:24;;;;;;;5.57;1.30;;;7.90;47.20;;;;;;4966925;28;20497;-43
2023/03/11 07:33:50;;;;;;;2.40;1.27;;;8.10;46.80;;;;;;4964481;28;20455;-45
2023/03/11 07:36:19;;;;;;;2.13;1.33;;;8.30;46.40;;;;;;4967325;28;20820;-44
2023/03/11 07:38:45;;;;;;;7.30;5.27;;;8.50;45.90;;;;;;4959973;28;20962;-43
2023/03/11 07:41:12;;;;;;;4.10;2.97;;;8.60;45.60;;;;;;4966558;28;20443;-45
2023/03/11 07:43:39;;;;;;;1.70;1.50;;;8.90;45.40;;;;;;4961640;28;20442;-45
2023/03/11 07:46:10;;;;;;;30.57;17.13;;;9.20;44.70;;;;;;4969635;28;20453;-46
2023/03/11 07:48:37;;;;;;;45.27;24.63;;;9.40;45.30;;;;;;4972280;28;20431;-44
2023/03/11 07:51:05;;;;;;;12.87;7.43;;;9.60;44.70;;;;;;4967770;28;20498;-45
2023/03/11 07:53:30;;;;;;;9.40;4.40;;;9.80;43.80;;;;;;4969396;28;20450;-47
2023/03/11 07:55:57;;;;;;;6.10;3.50;;;9.90;43.40;;;;;;4971353;28;20475;-45
2023/03/11 07:58:23;;;;;;;39.53;23.27;;;10.30;42.60;;;;;;4972360;28;20200;-49
2023/03/11 08:00:49;;;;;;;13.93;7.30;;;10.70;41.70;;;;;;4969498;28;20881;-45
2023/03/11 08:03:14;;;;;;;15.47;8.53;;;11.00;41.20;;;;;;4967589;28;20203;-45
2023/03/11 08:05:40;;;;;;;12.17;7.67;;;11.30;40.40;;;;;;4961416;28;20195;-44
2023/03/11 08:08:05;;;;;;;22.90;17.10;;;11.10;39.30;;;;;;4972005;28;20210;-45
2023/03/11 08:10:31;;;;;;;5.90;3.60;;;10.90;39.80;;;;;;4967982;28;21629;-46
2023/03/11 08:12:56;;;;;;;13.10;7.83;;;10.70;40.50;;;;;;4968224;28;20254;-46
2023/03/11 08:15:22;;;;;;;5.67;2.53;;;10.60;40.80;;;;;;4967601;28;20196;-44
2023/03/11 08:17:48;;;;;;;5.00;2.83;;;10.40;41.10;;;;;;4969785;28;20638;-49
2023/03/11 08:20:13;;;;;;;2.97;2.03;;;10.50;41.00;;;;;;4969635;28;20198;-45
2023/03/11 08:22:39;;;;;;;3.73;1.67;;;10.30;40.80;;;;;;4965232;28;20196;-44
2023/03/11 08:25:05;;;;;;;9.27;2.90;;;10.40;40.90;;;;;;4966492;28;20203;-45
2023/03/11 08:27:31;;;;;;;3.40;2.20;;;10.40;40.90;;;;;;4961259;28;20207;-45
2023/03/11 08:29:57;;;;;;;7.10;2.40;;;10.50;40.80;;;;;;4961266;28;20226;-45
2023/03/11 08:32:23;;;;;;;5.03;1.97;;;10.30;41.10;;;;;;4953124;28;20191;-44
2023/03/11 08:34:48;;;;;;;3.33;1.90;;;10.30;41.70;;;;;;4957618;28;20526;-46
2023/03/11 08:37:14;;;;;;;3.10;1.97;;;9.80;42.60;;;;;;4967641;28;20282;-46
2023/03/11 08:39:39;;;;;;;5.03;1.43;;;9.90;43.00;;;;;;4962652;28;20206;-45
2023/03/11 08:42:05;;;;;;;2.20;1.50;;;10.00;42.20;;;;;;4961677;28;20307;-47
2023/03/11 08:44:31;;;;;;;3.83;1.90;;;10.20;41.80;;;;;;4967074;28;20599;-45
2023/03/11 08:46:56;;;;;;;2.20;1.60;;;10.20;41.40;;;;;;4971636;28;20187;-49
2023/03/11 08:49:23;;;;;;;6.20;1.60;;;10.40;41.60;;;;;;4961993;28;20199;-45
2023/03/11 08:51:48;;;;;;;3.20;1.20;;;10.30;41.20;;;;;;4968432;28;20974;-45
2023/03/11 08:54:14;;;;;;;6.13;2.73;;;10.30;42.20;;;;;;4965464;28;20478;-45
2023/03/11 08:56:40;;;;;;;2.40;1.70;;;10.50;41.20;;;;;;4963511;28;20223;-45
2023/03/11 08:59:07;;;;;;;4.17;1.60;;;10.80;41.50;;;;;;4968292;28;20254;-46
2023/03/11 09:01:32;;;;;;;6.53;1.67;;;11.10;40.40;;;;;;4964964;28;20195;-46
2023/03/11 09:03:58;;;;;;;4.77;1.37;;;11.00;40.10;;;;;;4978308;28;20452;-45
2023/03/11 09:06:24;;;;;;;3.43;1.40;;;11.00;40.30;;;;;;4963786;28;20242;-44
2023/03/11 09:08:50;;;;;;;2.63;1.80;;;11.10;40.20;;;;;;4962754;28;20559;-49
2023/03/11 09:11:17;;;;;;;5.20;1.73;;;11.10;39.30;;;;;;4965647;28;20518;-45
2023/03/11 09:13:42;;;;;;;6.17;1.50;;;10.70;39.40;;;;;;4966065;28;20504;-45
2023/03/11 09:16:12;;;;;;;7.30;2.07;;;10.50;40.10;;;;;;4965305;28;20452;-48
2023/03/11 09:18:37;;;;;;;4.93;1.40;;;10.80;41.10;;;;;;4972620;28;20203;-45
2023/03/11 09:21:03;;;;;;;2.93;1.60;;;11.00;40.60;;;;;;4963357;28;20804;-45
2023/03/11 09:23:29;;;;;;;1.70;1.50;;;11.20;40.20;;;;;;4964402;28;20199;-48
2023/03/11 09:25:54;;;;;;;6.20;1.80;;;11.50;39.90;;;;;;4969867;28;20191;-45
2023/03/11 09:28:20;;;;;;;3.43;1.33;;;11.50;40.20;;;;;;4967282;28;20246;-49
2023/03/11 09:30:45;;;;;;;3.47;1.43;;;11.80;40.80;;;;;;4969295;28;20586;-45
2023/03/11 09:33:11;;;;;;;1.70;1.60;;;12.10;39.70;;;;;;4971702;28;20211;-49
2023/03/11 09:35:39;;;;;;;4.10;1.40;;;12.30;38.80;;;;;;4969089;28;20714;-46
2023/03/11 09:38:05;;;;;;;3.30;1.27;;;12.50;37.60;;;;;;4969377;28;20286;-47
2023/03/11 09:40:55;;;;;;;3.10;1.40;;;12.30;37.10;;;;;;4968269;28;20857;-47
2023/03/11 09:43:26;;;;;;;1.30;1.20;;;12.30;36.80;;;;;;4968712;28;20221;-47
2023/03/11 09:46:21;;;;;;;4.73;1.60;;;12.50;36.80;;;;;;4971293;28;20454;-48
2023/03/11 09:48:59;;;;;;;2.90;1.27;;;12.70;37.20;;;;;;4965753;28;20458;-47
2023/03/11 09:51:35;;;;;;;1.67;1.57;;;12.90;37.20;;;;;;4970419;28;20592;-48
2023/03/11 09:54:09;;;;;;;4.93;1.57;;;13.10;37.20;;;;;;4962947;28;20926;-48
2023/03/11 09:56:36;;;;;;;3.80;1.50;;;13.20;36.80;;;;;;4966355;28;20455;-46
2023/03/11 09:59:26;;;;;;;4.67;1.37;;;13.30;36.30;;;;;;4966625;28;20455;-47
2023/03/11 10:01:52;;;;;;;4.17;1.53;;;13.20;35.70;;;;;;4965156;28;20455;-49
2023/03/11 10:04:26;;;;;;;1.40;1.30;;;13.00;36.00;;;;;;4960858;28;20471;-48
2023/03/11 10:06:52;;;;;;;3.63;1.77;;;12.80;35.20;;;;;;4964486;28;20221;-49
2023/03/11 10:09:38;;;;;;;3.00;1.23;;;12.70;35.00;;;;;;4973546;28;20482;-46
2023/03/11 10:12:16;;;;;;;3.27;1.80;;;12.60;35.80;;;;;;4962670;28;20473;-49
2023/03/11 10:15:12;;;;;;;2.93;1.33;;;12.70;35.60;;;;;;4959055;28;20442;-46
2023/03/11 10:17:59;;;;;;;2.70;1.30;;;13.00;37.20;;;;;;4967576;28;20447;-50
2023/03/11 10:20:51;;;;;;;3.47;1.63;;;13.10;38.20;;;;;;4967639;28;20638;-46
2023/03/11 10:23:33;;;;;;;3.77;1.30;;;13.30;38.20;;;;;;4964765;28;20853;-48
2023/03/11 10:26:14;;;;;;;2.70;1.60;;;13.60;37.90;;;;;;4965178;28;20478;-46
2023/03/11 10:29:03;;;;;;;3.80;1.50;;;13.80;36.40;;;;;;4968434;28;20454;-43
2023/03/11 10:31:35;;;;;;;3.00;1.77;;;13.80;35.70;;;;;;4959275;28;20493;-44
2023/03/11 10:34:09;;;;;;;6.60;1.70;;;13.80;35.70;;;;;;4964089;28;20538;-43
2023/03/11 10:36:41;;;;;;;4.73;1.60;;;13.80;35.70;;;;;;4963226;28;20443;-44
2023/03/11 10:39:09;;;;;;;1.20;1.00;;;13.90;35.40;;;;;;4962909;28;20442;-47
2023/03/11 10:41:45;;;;;;;3.67;1.60;;;13.90;35.60;;;;;;4969617;28;21004;-46
2023/03/11 10:44:11;;;;;;;4.63;1.70;;;13.90;35.50;;;;;;4967168;28;20969;-53
2023/03/11 10:46:36;;;;;;;3.67;1.40;;;13.80;35.70;;;;;;4968176;28;20453;-44
2023/03/11 10:49:02;;;;;;;8.17;1.80;;;13.90;35.30;;;;;;4964631;28;20187;-47
2023/03/11 10:51:34;;;;;;;2.80;1.90;;;13.70;34.90;;;;;;4968407;28;20266;-45
2023/03/11 10:54:02;;;;;;;3.30;1.80;;;13.60;35.00;;;;;;4971740;28;20594;-44
2023/03/11 10:56:36;;;;;;;6.50;1.80;;;13.50;34.90;;;;;;4968755;28;20442;-48
2023/03/11 10:59:04;;;;;;;4.13;1.27;;;13.50;35.20;;;;;;4970757;28;20962;-44
2023/03/11 11:01:30;;;;;;;3.10;1.57;;;13.50;34.70;;;;;;4964579;28;20470;-45
2023/03/11 11:03:59;;;;;;;3.13;1.60;;;13.40;34.90;;;;;;4967738;28;20485;-44
2023/03/11 11:06:28;;;;;;;2.73;1.50;;;13.60;35.60;;;;;;4968263;28;20199;-43
2023/03/11 11:09:18;;;;;;;5.70;2.40;;;13.40;34.30;;;;;;4962875;28;20454;-44
2023/03/11 11:12:14;;;;;;;1.90;1.20;;;13.60;34.20;;;;;;4955731;28;20491;-43
2023/03/11 11:14:51;;;;;;;3.67;1.83;;;13.70;33.80;;;;;;4955366;28;20468;-48
2023/03/11 11:17:25;;;;;;;2.60;1.30;;;13.50;33.60;;;;;;4965856;28;20450;-44
2023/03/11 11:19:52;;;;;;;1.67;1.43;;;13.40;33.30;;;;;;4969171;28;20469;-47
2023/03/11 11:22:21;;;;;;;2.40;1.40;;;13.20;33.20;;;;;;4963162;28;20499;-45
2023/03/11 11:24:50;;;;;;;2.10;1.77;;;13.10;33.40;;;;;;4967859;28;20811;-43
2023/03/11 11:27:18;;;;;;;2.00;1.10;;;13.20;34.00;;;;;;4961776;28;20534;-47
2023/03/11 11:29:45;;;;;;;3.33;1.37;;;13.30;34.00;;;;;;4962801;28;20486;-48
2023/03/11 11:32:14;;;;;;;2.23;1.27;;;13.30;33.30;;;;;;4966039;28;20459;-43
2023/03/11 11:34:39;;;;;;;3.23;1.53;;;13.50;32.00;;;;;;4971830;28;20774;-43
2023/03/11 11:37:08;;;;;;;1.67;1.53;;;13.60;31.50;;;;;;4970161;28;20538;-43
2023/03/11 11:39:50;;;;;;;1.93;1.27;;;13.70;32.50;;;;;;4969584;28;20198;-43
2023/03/11 11:42:18;;;;;;;1.10;1.00;;;13.80;30.30;;;;;;4967420;28;20458;-44
2023/03/11 11:44:49;;;;;;;2.43;1.40;;;13.70;30.60;;;;;;4968512;28;20488;-43
2023/03/11 11:47:34;;;;;;;1.47;1.20;;;13.70;31.40;;;;;;4962703;28;20485;-45
2023/03/11 11:50:03;;;;;;;2.40;1.37;;;13.80;32.80;;;;;;4958493;28;20553;-44
2023/03/11 11:52:41;;;;;;;4.17;1.70;;;14.20;34.20;;;;;;4965363;28;21981;-44
2023/03/11 11:55:19;;;;;;;3.87;2.90;;;14.30;34.20;;;;;;4969456;28;20482;-43
2023/03/11 11:57:45;;;;;;;2.40;1.40;;;14.60;33.90;;;;;;4968100;28;20950;-44
2023/03/11 12:00:40;;;;;;;3.17;1.63;;;14.90;32.40;;;;;;4969276;28;20451;-44
2023/03/11 12:03:26;;;;;;;5.93;1.90;;;15.00;33.40;;;;;;4967336;28;20454;-46
2023/03/11 12:05:57;;;;;;;2.60;1.30;;;15.00;32.60;;;;;;4965581;28;20442;-43
2023/03/11 12:08:45;;;;;;;1.97;1.40;;;14.80;30.30;;;;;;4956320;28;20465;-43
2023/03/11 12:11:18;;;;;;;1.90;1.57;;;14.80;31.80;;;;;;4971052;28;20493;-44
2023/03/11 12:14:01;;;;;;;2.50;1.10;;;14.60;31.80;;;;;;4965728;28;20474;-44
2023/03/11 12:16:39;;;;;;;3.10;1.70;;;14.70;32.10;;;;;;4964239;28;20450;-43
2023/03/11 12:19:10;;;;;;;1.97;1.20;;;14.60;30.80;;;;;;4960894;28;20457;-44
2023/03/11 12:22:04;;;;;;;3.73;1.20;;;14.20;30.00;;;;;;4959286;28;20454;-47
2023/03/11 12:24:48;;;;;;;1.67;1.20;;;14.30;32.20;;;;;;4967131;28;20443;-44
2023/03/11 12:27:32;;;;;;;1.03;0.93;;;14.40;31.60;;;;;;4967523;28;20465;-48
2023/03/11 12:30:24;;;;;;;1.97;1.67;;;14.40;30.30;;;;;;4967619;28;20918;-43
2023/03/11 12:32:58;;;;;;;4.30;1.60;;;14.50;29.80;;;;;;4953652;28;20527;-46
2023/03/11 12:35:29;;;;;;;1.53;1.17;;;14.40;30.20;;;;;;4965927;28;20450;-44
2023/03/11 12:38:14;;;;;;;1.83;1.20;;;14.40;30.00;;;;;;4971464;28;20517;-47
2023/03/11 12:40:49;;;;;;;4.67;1.90;;;14.40;29.50;;;;;;4966006;28;20450;-44
2023/03/11 12:43:32;;;;;;;3.03;2.10;;;14.40;29.50;;;;;;4963545;28;20481;-49
2023/03/11 12:46:05;;;;;;;2.60;1.37;;;14.30;28.80;;;;;;4968005;28;20459;-47
2023/03/11 12:48:34;;;;;;;5.53;1.40;;;14.60;29.80;;;;;;4960025;28;20537;-45
2023/03/11 12:51:00;;;;;;;2.50;1.40;;;14.90;29.60;;;;;;4968733;28;21162;-47
2023/03/11 12:53:46;;;;;;;3.57;1.53;;;14.80;29.60;;;;;;4967960;28;20438;-45
2023/03/11 12:56:38;;;;;;;2.50;2.30;;;15.00;31.30;;;;;;4968561;28;21029;-48
2023/03/11 12:59:10;;;;;;;1.60;1.10;;;15.20;32.10;;;;;;4959554;28;20970;-45
2023/03/11 13:01:54;;;;;;;3.93;1.43;;;15.30;31.90;;;;;;4962540;28;20584;-47